Time;durP1;ratioP1;P1;durP2;ratioP2;P2;SDS_P1;SDS_P2;PMS_P1;PMS_P2;Temp;Humidity;BMP_temperature;BMP_pressure;BME280_temperature;BME280_humidity;BME280_pressure;Samples;Min_cycle;Max_cycle;Signal;HPM_P1;HPM_P2
2021/09/29 00:01:02;;;;;;;25.02;13.98;;;;;;;;;;5075627;28;20060;-57
2021/09/29 00:03:28;;;;;;;28.35;14.43;;;;;;;;;;5075696;28;20061;-58
2021/09/29 00:05:54;;;;;;;24.65;12.20;;;;;;;;;;5057746;28;20020;-57
2021/09/29 00:08:20;;;;;;;25.73;12.48;;;;;;;;;;5075298;28;20473;-59
2021/09/29 00:10:46;;;;;;;24.27;13.20;;;;;;;;;;5057368;28;20039;-59
2021/09/29 00:13:12;;;;;;;26.25;11.77;;;;;;;;;;5057496;28;20118;-58
2021/09/29 00:15:38;;;;;;;27.23;13.88;;;;;;;;;;5057665;28;20107;-57
2021/09/29 00:18:04;;;;;;;24.98;13.85;;;;;;;;;;5057424;28;20510;-58
2021/09/29 00:20:30;;;;;;;25.35;12.48;;;;;;;;;;5057355;28;20462;-57
2021/09/29 00:22:56;;;;;;;23.63;12.57;;;;;;;;;;5075417;28;20028;-59
2021/09/29 00:25:22;;;;;;;28.73;14.35;;;;;;;;;;5057994;28;20021;-58
2021/09/29 00:27:48;;;;;;;22.02;12.60;;;;;;;;;;5075409;28;20028;-59
2021/09/29 00:30:15;;;;;;;25.95;12.65;;;;;;;;;;5057140;28;20108;-59
2021/09/29 00:32:42;;;;;;;24.63;12.25;;;;;;;;;;5075248;28;20023;-58
2021/09/29 00:35:09;;;;;;;23.17;12.60;;;;;;;;;;5057064;28;20025;-59
2021/09/29 00:37:35;;;;;;;24.25;12.38;;;;;;;;;;5074944;28;20483;-58
2021/09/29 00:40:01;;;;;;;23.10;12.45;;;;;;;;;;5075129;28;20535;-58
2021/09/29 00:42:27;;;;;;;23.17;11.60;;;;;;;;;;5057102;28;20146;-57
2021/09/29 00:44:53;;;;;;;22.90;11.80;;;;;;;;;;5057060;28;20107;-56
2021/09/29 00:47:19;;;;;;;22.98;11.95;;;;;;;;;;5056344;28;20554;-58
2021/09/29 00:49:46;;;;;;;21.30;11.27;;;;;;;;;;5074138;28;20036;-58
2021/09/29 00:52:12;;;;;;;27.27;12.93;;;;;;;;;;5056800;28;20055;-58
2021/09/29 00:54:39;;;;;;;23.88;13.02;;;;;;;;;;5074707;28;20028;-57
2021/09/29 00:57:05;;;;;;;24.00;12.18;;;;;;;;;;5056736;28;20021;-55
2021/09/29 00:59:31;;;;;;;21.92;11.48;;;;;;;;;;5074326;28;20463;-59
2021/09/29 01:01:57;;;;;;;25.40;11.85;;;;;;;;;;5056743;28;20056;-57
2021/09/29 01:04:25;;;;;;;22.52;11.63;;;;;;;;;;5056788;28;20036;-57
2021/09/29 01:07:14;;;;;;;26.40;11.75;;;;;;;;;;5056416;28;20123;-58
2021/09/29 01:09:54;;;;;;;24.70;10.93;;;;;;;;;;5056298;28;20016;-58
2021/09/29 01:12:24;;;;;;;21.92;11.00;;;;;;;;;;5074469;28;20024;-58
2021/09/29 01:14:57;;;;;;;22.17;11.20;;;;;;;;;;5056379;28;20093;-55
2021/09/29 01:17:23;;;;;;;22.13;11.00;;;;;;;;;;5074092;28;20020;-58
2021/09/29 01:20:05;;;;;;;23.08;11.38;;;;;;;;;;5056049;28;20035;-59
2021/09/29 01:22:34;;;;;;;23.77;10.95;;;;;;;;;;5056298;28;20028;-54
2021/09/29 01:25:02;;;;;;;21.60;10.57;;;;;;;;;;5056286;28;20020;-57
2021/09/29 01:27:31;;;;;;;22.13;10.18;;;;;;;;;;5056285;28;20027;-58
2021/09/29 01:29:56;;;;;;;;;;;;;;;;;;5056196;28;20124;-58
2021/09/29 01:32:23;;;;;;;22.08;10.57;;;;;;;;;;5055912;28;19992;-59
2021/09/29 01:34:50;;;;;;;24.15;9.95;;;;;;;;;;5056318;28;20063;-58
2021/09/29 01:37:16;;;;;;;19.55;10.00;;;;;;;;;;5074012;28;20016;-58
2021/09/29 01:39:43;;;;;;;21.38;9.55;;;;;;;;;;5073574;28;20081;-60
2021/09/29 01:42:09;;;;;;;21.88;9.57;;;;;;;;;;5055732;28;20047;-61
2021/09/29 01:44:35;;;;;;;21.20;9.40;;;;;;;;;;5073571;28;20020;-60
2021/09/29 01:47:02;;;;;;;19.60;8.90;;;;;;;;;;5055911;28;20028;-57
2021/09/29 01:49:31;;;;;;;24.00;9.98;;;;;;;;;;5073179;28;20029;-57
2021/09/29 01:51:57;;;;;;;20.20;9.27;;;;;;;;;;5073530;28;20108;-58
2021/09/29 01:54:29;;;;;;;18.30;8.93;;;;;;;;;;5055637;28;20038;-60
2021/09/29 01:56:55;;;;;;;20.02;8.50;;;;;;;;;;5055483;28;20081;-59
2021/09/29 01:59:24;;;;;;;18.92;8.90;;;;;;;;;;5072837;28;20032;-59
2021/09/29 02:01:52;;;;;;;20.13;9.15;;;;;;;;;;5055512;28;20028;-58
2021/09/29 02:04:19;;;;;;;19.00;8.88;;;;;;;;;;5073177;28;20064;-59
2021/09/29 02:06:49;;;;;;;20.20;8.98;;;;;;;;;;5073342;28;20370;-59
2021/09/29 02:09:15;;;;;;;18.08;8.25;;;;;;;;;;5054950;28;20102;-58
2021/09/29 02:11:41;;;;;;;19.13;8.88;;;;;;;;;;5073337;28;20040;-59
2021/09/29 02:14:08;;;;;;;21.33;8.85;;;;;;;;;;5055427;28;20013;-58
2021/09/29 02:16:35;;;;;;;19.17;8.65;;;;;;;;;;5072951;28;20027;-57
2021/09/29 02:19:00;;;;;;;18.25;8.15;;;;;;;;;;5054801;28;20115;-60
2021/09/29 02:21:26;;;;;;;19.13;7.95;;;;;;;;;;5073028;28;20514;-55
2021/09/29 02:23:52;;;;;;;19.58;8.70;;;;;;;;;;5072862;28;20035;-58
2021/09/29 02:26:18;;;;;;;19.48;7.88;;;;;;;;;;5072934;28;20032;-53
2021/09/29 02:28:44;;;;;;;20.02;8.18;;;;;;;;;;5054484;28;20032;-56
2021/09/29 02:31:10;;;;;;;18.45;7.80;;;;;;;;;;5055140;28;20025;-59
2021/09/29 02:33:36;;;;;;;19.77;8.55;;;;;;;;;;5055179;28;20035;-60
2021/09/29 02:36:02;;;;;;;20.75;8.25;;;;;;;;;;5054840;28;20021;-58
2021/09/29 02:38:28;;;;;;;19.90;7.72;;;;;;;;;;5072679;28;20082;-58
2021/09/29 02:40:54;;;;;;;18.13;7.82;;;;;;;;;;5072976;28;20032;-59
2021/09/29 02:43:20;;;;;;;18.73;7.47;;;;;;;;;;5054804;28;20031;-55
2021/09/29 02:45:46;;;;;;;22.60;7.68;;;;;;;;;;5054950;28;20331;-58
2021/09/29 02:48:13;;;;;;;17.95;7.25;;;;;;;;;;5072237;28;20021;-57
2021/09/29 02:50:39;;;;;;;18.15;8.07;;;;;;;;;;5054561;28;20021;-58
2021/09/29 02:53:05;;;;;;;17.50;7.20;;;;;;;;;;5072562;28;20037;-59
2021/09/29 02:55:33;;;;;;;20.13;8.05;;;;;;;;;;5054560;28;20024;-59
2021/09/29 02:57:59;;;;;;;17.48;7.38;;;;;;;;;;5072216;28;20107;-58
2021/09/29 03:00:25;;;;;;;18.23;8.25;;;;;;;;;;5072107;28;20498;-58
2021/09/29 03:02:51;;;;;;;22.38;8.43;;;;;;;;;;5054433;28;20025;-60
2021/09/29 03:05:17;;;;;;;17.80;8.13;;;;;;;;;;5072309;28;20021;-59
2021/09/29 03:07:43;;;;;;;22.52;8.18;;;;;;;;;;5054266;28;20021;-58
2021/09/29 03:10:09;;;;;;;19.73;7.75;;;;;;;;;;5071855;28;20145;-55
2021/09/29 03:12:35;;;;;;;27.63;9.95;;;;;;;;;;5053842;28;20480;-58
2021/09/29 03:15:01;;;;;;;17.88;8.27;;;;;;;;;;5054137;28;20027;-59
2021/09/29 03:17:30;;;;;;;20.35;8.57;;;;;;;;;;5072514;28;20043;-55
2021/09/29 03:19:56;;;;;;;18.92;7.88;;;;;;;;;;5071746;28;20040;-59
2021/09/29 03:22:22;;;;;;;19.90;8.18;;;;;;;;;;5053833;28;20020;-55
2021/09/29 03:24:48;;;;;;;17.65;8.00;;;;;;;;;;5071973;28;20028;-58
2021/09/29 03:27:14;;;;;;;18.08;7.80;;;;;;;;;;5072057;28;20016;-58
2021/09/29 03:29:40;;;;;;;21.70;7.97;;;;;;;;;;5071608;28;20029;-58
2021/09/29 03:32:06;;;;;;;18.52;7.63;;;;;;;;;;5071832;28;20024;-58
2021/09/29 03:34:32;;;;;;;22.48;8.02;;;;;;;;;;5054024;28;20017;-58
2021/09/29 03:36:58;;;;;;;19.77;7.53;;;;;;;;;;5053962;28;20094;-55
2021/09/29 03:39:24;;;;;;;20.30;7.72;;;;;;;;;;5071569;28;20111;-57
2021/09/29 03:41:50;;;;;;;19.65;8.35;;;;;;;;;;5054047;28;20073;-58
2021/09/29 03:44:16;;;;;;;23.15;8.38;;;;;;;;;;5053738;28;20029;-58
2021/09/29 03:46:42;;;;;;;20.77;7.57;;;;;;;;;;5053751;28;20028;-57
2021/09/29 03:49:08;;;;;;;19.38;7.40;;;;;;;;;;5071329;28;20029;-60
2021/09/29 03:51:34;;;;;;;17.17;7.75;;;;;;;;;;5071534;28;20032;-64
2021/09/29 03:54:00;;;;;;;19.10;7.88;;;;;;;;;;5054095;28;20059;-57
2021/09/29 03:56:26;;;;;;;18.58;7.85;;;;;;;;;;5071581;28;20511;-58
2021/09/29 03:58:52;;;;;;;19.25;7.22;;;;;;;;;;5071127;28;20040;-58
2021/09/29 04:01:19;;;;;;;18.23;7.68;;;;;;;;;;5071633;28;20036;-59
2021/09/29 04:03:45;;;;;;;23.05;9.20;;;;;;;;;;5071602;28;20146;-55
2021/09/29 04:06:11;;;;;;;20.10;8.48;;;;;;;;;;5071542;28;20484;-58
2021/09/29 04:08:37;;;;;;;20.10;8.38;;;;;;;;;;5053186;28;20025;-55
2021/09/29 04:11:06;;;;;;;20.40;8.07;;;;;;;;;;5071376;28;20509;-58
2021/09/29 04:13:32;;;;;;;20.73;8.70;;;;;;;;;;5053586;28;20024;-58
2021/09/29 04:15:58;;;;;;;19.58;8.68;;;;;;;;;;5071446;28;20024;-54
2021/09/29 04:18:24;;;;;;;19.48;8.13;;;;;;;;;;5053243;28;20396;-59
2021/09/29 04:20:50;;;;;;;22.83;8.23;;;;;;;;;;5071434;28;20028;-54
2021/09/29 04:23:16;;;;;;;20.73;7.90;;;;;;;;;;5056280;28;20466;-59
2021/09/29 04:25:43;;;;;;;20.92;8.85;;;;;;;;;;5057317;28;20392;-55
2021/09/29 04:28:09;;;;;;;18.88;8.05;;;;;;;;;;5056694;28;20027;-58
2021/09/29 04:30:35;;;;;;;18.02;7.63;;;;;;;;;;5074910;28;20537;-58
2021/09/29 04:33:02;;;;;;;21.67;8.15;;;;;;;;;;5056852;28;20361;-59
2021/09/29 04:35:28;;;;;;;21.65;8.00;;;;;;;;;;5074743;28;20019;-59
2021/09/29 04:37:54;;;;;;;21.08;8.10;;;;;;;;;;5056568;28;20059;-58
2021/09/29 04:40:21;;;;;;;18.77;7.93;;;;;;;;;;5074365;28;20092;-57
2021/09/29 04:42:47;;;;;;;21.45;9.05;;;;;;;;;;5056519;28;20042;-61
2021/09/29 04:45:13;;;;;;;18.00;8.43;;;;;;;;;;5056364;28;20021;-58
2021/09/29 04:47:39;;;;;;;20.40;8.00;;;;;;;;;;5074437;28;20021;-59
2021/09/29 04:50:05;;;;;;;18.65;9.35;;;;;;;;;;5074270;28;20031;-58
2021/09/29 04:52:31;;;;;;;23.83;9.55;;;;;;;;;;5056562;28;20373;-56
2021/09/29 04:54:57;;;;;;;19.17;7.60;;;;;;;;;;5074339;28;20028;-55
2021/09/29 04:57:23;;;;;;;18.25;7.95;;;;;;;;;;5056204;28;20016;-59
2021/09/29 04:59:49;;;;;;;20.20;7.70;;;;;;;;;;5030867;22;20058;-61
2021/09/29 05:02:15;;;;;;;20.92;8.82;;;;;;;;;;4990225;28;20535;-62
2021/09/29 05:04:41;;;;;;;19.00;8.27;;;;;;;;;;4990340;28;20015;-63
2021/09/29 05:07:14;;;;;;;21.10;8.23;;;;;;;;;;4973095;28;20072;-60
2021/09/29 05:09:40;;;;;;;22.65;8.13;;;;;;;;;;4990012;28;20102;-62
2021/09/29 05:12:16;;;;;;;21.30;8.35;;;;;;;;;;4990232;28;20103;-63
2021/09/29 05:14:42;;;;;;;21.60;8.73;;;;;;;;;;4989590;28;20062;-62
2021/09/29 05:17:08;;;;;;;19.48;8.93;;;;;;;;;;4990146;28;20509;-61
2021/09/29 05:19:34;;;;;;;19.23;8.15;;;;;;;;;;4972149;28;20034;-62
2021/09/29 05:22:00;;;;;;;21.60;9.60;;;;;;;;;;4972450;28;20030;-63
2021/09/29 05:24:25;;;;;;;25.70;9.18;;;;;;;;;;4972097;28;20031;-62
2021/09/29 05:26:51;;;;;;;17.98;8.43;;;;;;;;;;4989522;28;20117;-62
2021/09/29 05:29:19;;;;;;;17.98;8.95;;;;;;;;;;4989351;28;20441;-63
2021/09/29 05:31:45;;;;;;;24.33;10.90;;;;;;;;;;4972108;28;20073;-61
2021/09/29 05:34:11;;;;;;;19.90;8.63;;;;;;;;;;4971579;28;20620;-61
2021/09/29 05:36:37;;;;;;;18.77;8.70;;;;;;;;;;4989544;28;20037;-58
2021/09/29 05:39:03;;;;;;;18.90;8.20;;;;;;;;;;4971218;28;20026;-61
2021/09/29 05:41:29;;;;;;;19.90;8.98;;;;;;;;;;4991245;28;20077;-63
2021/09/29 05:43:55;;;;;;;18.33;7.65;;;;;;;;;;5050353;28;20034;-58
2021/09/29 05:46:21;;;;;;;19.80;8.63;;;;;;;;;;4972381;28;20026;-61
2021/09/29 05:48:47;;;;;;;18.80;8.50;;;;;;;;;;4980599;28;20116;-60
2021/09/29 05:51:13;;;;;;;19.08;8.40;;;;;;;;;;4952065;28;20027;-58
2021/09/29 05:53:39;;;;;;;21.02;8.60;;;;;;;;;;4952309;28;20030;-61
2021/09/29 05:56:06;;;;;;;22.45;8.82;;;;;;;;;;4969897;28;20023;-63
2021/09/29 05:58:32;;;;;;;19.98;8.02;;;;;;;;;;4986185;28;20034;-61
2021/09/29 06:00:58;;;;;;;19.92;8.40;;;;;;;;;;4988668;28;20779;-58
2021/09/29 06:03:24;;;;;;;18.85;8.77;;;;;;;;;;4988515;28;20472;-60
2021/09/29 06:05:50;;;;;;;20.80;8.30;;;;;;;;;;4989132;28;20042;-62
2021/09/29 06:08:16;;;;;;;19.42;8.18;;;;;;;;;;4970703;28;20042;-59
2021/09/29 06:10:42;;;;;;;19.90;8.18;;;;;;;;;;4988938;28;20026;-62
2021/09/29 06:13:08;;;;;;;20.50;8.38;;;;;;;;;;4971382;28;20121;-63
2021/09/29 06:15:34;;;;;;;21.10;9.27;;;;;;;;;;4971385;28;20031;-61
2021/09/29 06:18:04;;;;;;;19.55;8.15;;;;;;;;;;4951699;28;20019;-63
2021/09/29 06:20:32;;;;;;;25.17;11.90;;;;;;;;;;4969459;28;20050;-63
2021/09/29 06:22:58;;;;;;;20.37;8.30;;;;;;;;;;4969531;28;20026;-58
2021/09/29 06:25:24;;;;;;;20.73;8.38;;;;;;;;;;4968864;28;20067;-62
2021/09/29 06:27:50;;;;;;;22.55;8.65;;;;;;;;;;4951620;28;20123;-61
2021/09/29 06:30:17;;;;;;;20.63;8.93;;;;;;;;;;4969010;28;20128;-61
2021/09/29 06:32:43;;;;;;;17.88;7.90;;;;;;;;;;4969477;28;20156;-62
2021/09/29 06:35:10;;;;;;;33.33;8.90;;;;;;;;;;4969106;28;20364;-61
2021/09/29 06:37:41;;;;;;;20.05;7.97;;;;;;;;;;4969177;28;20027;-63
2021/09/29 06:40:08;;;;;;;21.02;8.25;;;;;;;;;;4968224;28;20490;-61
2021/09/29 06:42:36;;;;;;;17.95;7.97;;;;;;;;;;4988130;28;20033;-61
2021/09/29 06:45:02;;;;;;;17.50;8.20;;;;;;;;;;4987784;28;20045;-58
2021/09/29 06:47:28;;;;;;;18.63;8.43;;;;;;;;;;4969797;28;20034;-61
2021/09/29 06:49:54;;;;;;;19.60;7.90;;;;;;;;;;4987627;28;20026;-63
2021/09/29 06:52:20;;;;;;;17.55;8.52;;;;;;;;;;4988459;28;20026;-63
2021/09/29 06:54:46;;;;;;;18.85;8.05;;;;;;;;;;4970822;28;20049;-62
2021/09/29 06:57:12;;;;;;;19.15;8.20;;;;;;;;;;4988157;28;20393;-62
2021/09/29 06:59:39;;;;;;;23.15;9.57;;;;;;;;;;4987913;28;20046;-60
2021/09/29 07:02:05;;;;;;;21.10;8.23;;;;;;;;;;4988928;28;20023;-58
2021/09/29 07:04:31;;;;;;;20.13;9.43;;;;;;;;;;4988499;28;20446;-63
2021/09/29 07:06:58;;;;;;;19.80;9.07;;;;;;;;;;4988514;28;20065;-64
2021/09/29 07:09:24;;;;;;;19.42;8.90;;;;;;;;;;4987798;28;20107;-63
2021/09/29 07:11:50;;;;;;;20.83;8.82;;;;;;;;;;4971121;28;20034;-64
2021/09/29 07:14:16;;;;;;;19.70;8.77;;;;;;;;;;4988452;28;20148;-64
2021/09/29 07:16:42;;;;;;;18.60;9.70;;;;;;;;;;4988621;28;20019;-62
2021/09/29 07:19:08;;;;;;;20.55;9.05;;;;;;;;;;4988022;28;20607;-64
2021/09/29 07:21:34;;;;;;;20.30;9.02;;;;;;;;;;4988180;28;20019;-64
2021/09/29 07:24:00;;;;;;;19.67;9.18;;;;;;;;;;4988238;28;20023;-63
2021/09/29 07:26:26;;;;;;;18.00;8.50;;;;;;;;;;4970904;28;20023;-63
2021/09/29 07:28:52;;;;;;;19.02;9.35;;;;;;;;;;4987972;28;20030;-64
2021/09/29 07:31:18;;;;;;;19.23;8.25;;;;;;;;;;4988120;28;20053;-63
2021/09/29 07:33:44;;;;;;;21.52;9.52;;;;;;;;;;4988181;28;20018;-64
2021/09/29 07:36:11;;;;;;;17.08;8.48;;;;;;;;;;4988285;28;20367;-63
2021/09/29 07:38:37;;;;;;;19.20;9.45;;;;;;;;;;4987705;28;20023;-63
2021/09/29 07:41:04;;;;;;;17.98;9.13;;;;;;;;;;4988372;28;20105;-63
2021/09/29 07:43:30;;;;;;;17.45;8.40;;;;;;;;;;4988014;28;20034;-63
2021/09/29 07:45:57;;;;;;;19.50;8.77;;;;;;;;;;4987955;28;20054;-64
2021/09/29 07:48:23;;;;;;;19.30;7.88;;;;;;;;;;4987554;28;20030;-64
2021/09/29 07:50:49;;;;;;;20.38;8.50;;;;;;;;;;4988118;28;20023;-63
2021/09/29 07:53:17;;;;;;;17.42;8.13;;;;;;;;;;4987808;28;20053;-62
2021/09/29 07:55:43;;;;;;;20.00;8.10;;;;;;;;;;4988090;28;20439;-63
2021/09/29 07:58:09;;;;;;;18.08;7.70;;;;;;;;;;4972874;28;20543;-60
2021/09/29 08:00:35;;;;;;;20.63;7.70;;;;;;;;;;4991144;28;20022;-64
2021/09/29 08:03:01;;;;;;;17.15;7.82;;;;;;;;;;4973532;28;20050;-64
2021/09/29 08:05:30;;;;;;;20.52;8.18;;;;;;;;;;4991244;28;20463;-63
2021/09/29 08:07:56;;;;;;;20.02;8.00;;;;;;;;;;4991205;28;20030;-63
2021/09/29 08:10:21;;;;;;;18.38;7.82;;;;;;;;;;4990663;28;20022;-61
2021/09/29 08:12:47;;;;;;;23.38;9.93;;;;;;;;;;4991166;28;20030;-62
2021/09/29 08:15:15;;;;;;;16.60;7.60;;;;;;;;;;4990997;28;20106;-62
2021/09/29 08:17:42;;;;;;;19.45;8.18;;;;;;;;;;4991136;28;20440;-63
2021/09/29 08:20:09;;;;;;;17.15;8.05;;;;;;;;;;4990688;28;20027;-62
2021/09/29 08:22:35;;;;;;;19.58;8.45;;;;;;;;;;4991218;28;20023;-63
2021/09/29 08:25:37;;;;;;;18.67;8.02;;;;;;;;;;4991037;28;20505;-63
2021/09/29 08:35:33;;;;;;;18.52;9.00;;;;;;;;;;4990794;28;20076;-60
2021/09/29 08:38:07;;;;;;;23.50;7.93;;;;;;;;;;4990774;28;20030;-62
2021/09/29 08:41:18;;;;;;;17.38;7.85;;;;;;;;;;4990810;28;20113;-61
2021/09/29 08:48:33;;;;;;;17.88;8.77;;;;;;;;;;4990247;28;20482;-63
2021/09/29 09:16:10;;;;;;;18.73;7.20;;;;;;;;;;5010554;28;20028;-64
2021/09/29 09:18:46;;;;;;;17.50;7.68;;;;;;;;;;5009543;28;20026;-63
2021/09/29 09:21:15;;;;;;;14.95;7.18;;;;;;;;;;4998669;28;20369;-63
2021/09/29 09:23:42;;;;;;;17.70;6.75;;;;;;;;;;4989781;28;20030;-61
2021/09/29 09:26:28;;;;;;;16.00;6.75;;;;;;;;;;4989715;28;20038;-63
2021/09/29 09:29:06;;;;;;;17.98;7.57;;;;;;;;;;4972253;28;20026;-62
2021/09/29 09:31:33;;;;;;;17.90;6.40;;;;;;;;;;4990274;28;20546;-64
2021/09/29 09:34:06;;;;;;;16.08;6.47;;;;;;;;;;4989777;28;20030;-62
2021/09/29 09:36:43;;;;;;;16.70;6.97;;;;;;;;;;4990173;28;20056;-62
2021/09/29 09:39:16;;;;;;;16.25;6.38;;;;;;;;;;4989695;28;20482;-63
2021/09/29 09:41:46;;;;;;;16.90;6.57;;;;;;;;;;4989961;28;20032;-63
2021/09/29 09:44:12;;;;;;;16.02;6.25;;;;;;;;;;4989677;28;20066;-63
2021/09/29 09:46:38;;;;;;;15.38;7.10;;;;;;;;;;4989404;28;20087;-63
2021/09/29 09:49:04;;;;;;;17.60;6.70;;;;;;;;;;4971807;28;20031;-62
2021/09/29 09:51:32;;;;;;;16.08;7.03;;;;;;;;;;4989645;28;20147;-64
2021/09/29 09:53:58;;;;;;;15.52;6.72;;;;;;;;;;4989851;28;20023;-64
2021/09/29 09:56:27;;;;;;;15.57;6.63;;;;;;;;;;4972311;28;20034;-60
2021/09/29 09:58:54;;;;;;;17.38;7.13;;;;;;;;;;4989083;28;20046;-65
2021/09/29 10:01:22;;;;;;;16.88;7.10;;;;;;;;;;4989655;28;20054;-65
2021/09/29 10:03:48;;;;;;;14.43;5.93;;;;;;;;;;4956103;28;20038;-65
2021/09/29 10:06:15;;;;;;;13.77;6.20;;;;;;;;;;4989480;28;20417;-63
2021/09/29 10:08:45;;;;;;;16.13;6.50;;;;;;;;;;4988979;28;20042;-63
2021/09/29 10:11:19;;;;;;;17.73;6.25;;;;;;;;;;4989438;28;20026;-61
2021/09/29 10:14:10;;;;;;;17.58;7.00;;;;;;;;;;4989323;28;20146;-62
2021/09/29 10:28:00;;;;;;;23.38;15.45;;;;;;;;;;4989366;28;20532;-64
2021/09/29 10:30:29;;;;;;;19.85;14.77;;;;;;;;;;4989075;28;20034;-63
2021/09/29 10:32:59;;;;;;;18.63;14.80;;;;;;;;;;4989268;28;20026;-65
2021/09/29 10:35:43;;;;;;;20.65;15.25;;;;;;;;;;4990139;28;20022;-65
2021/09/29 10:49:17;;;;;;;21.83;18.00;;;;;;;;;;4988545;28;20030;-62
2021/09/29 11:05:52;;;;;;;20.08;14.45;;;;;;;;;;4950636;29;20035;-62
2021/09/29 11:27:41;;;;;;;17.42;11.20;;;;;;;;;;4931891;29;20408;-61
2021/09/29 11:30:22;;;;;;;16.85;11.20;;;;;;;;;;4931496;29;20038;-62
2021/09/29 11:32:53;;;;;;;17.45;10.88;;;;;;;;;;4929713;29;20024;-60
2021/09/29 11:38:23;;;;;;;17.90;11.75;;;;;;;;;;4931645;29;20086;-62
2021/09/29 12:08:46;;;;;;;18.00;9.63;;;;;;;;;;4949855;28;20125;-54
2021/09/29 12:11:19;;;;;;;15.90;9.07;;;;;;;;;;4964677;28;20114;-57
2021/09/29 12:13:57;;;;;;;14.50;9.07;;;;;;;;;;4949961;28;20552;-55
2021/09/29 12:16:30;;;;;;;17.48;10.02;;;;;;;;;;4964652;28;20027;-56
2021/09/29 12:18:57;;;;;;;16.35;11.48;;;;;;;;;;4964391;28;20445;-51
2021/09/29 12:21:50;;;;;;;15.85;11.02;;;;;;;;;;4950122;28;20027;-56
2021/09/29 12:24:27;;;;;;;18.27;12.40;;;;;;;;;;4964855;28;20027;-55
2021/09/29 12:26:55;;;;;;;16.30;11.50;;;;;;;;;;4950145;28;20095;-58
2021/09/29 12:29:29;;;;;;;15.87;10.93;;;;;;;;;;4949696;28;20024;-55
2021/09/29 12:32:08;;;;;;;15.35;10.57;;;;;;;;;;4964565;28;20341;-58
2021/09/29 12:35:32;;;;;;;18.88;14.52;;;;;;;;;;4950160;28;20023;-55
2021/09/29 12:37:20;;;;;;;20.08;13.73;;;;;;;;;;4963145;28;20040;-51
2021/09/29 12:39:46;;;;;;;20.02;11.40;;;;;;;;;;4964414;28;20054;-57
2021/09/29 12:42:12;;;;;;;15.60;10.13;;;;;;;;;;4949283;28;20031;-56
2021/09/29 12:44:49;;;;;;;16.60;9.00;;;;;;;;;;4966098;28;20027;-55
2021/09/29 12:49:44;;;;;;;15.35;8.68;;;;;;;;;;4952211;28;20031;-58
2021/09/29 12:52:10;;;;;;;15.48;8.80;;;;;;;;;;4952409;28;20024;-55
2021/09/29 12:54:43;;;;;;;14.45;8.00;;;;;;;;;;4967333;28;20024;-59
2021/09/29 12:57:09;;;;;;;15.25;9.15;;;;;;;;;;4952445;28;20016;-57
2021/09/29 12:59:35;;;;;;;16.92;9.20;;;;;;;;;;4952892;28;20039;-54
2021/09/29 13:02:01;;;;;;;15.32;9.20;;;;;;;;;;4967019;28;20076;-58
2021/09/29 13:04:26;;;;;;;15.75;9.20;;;;;;;;;;4604294;28;9999942;-56
2021/09/29 13:06:52;;;;;;;15.10;9.23;;;;;;;;;;4930643;29;20028;-56
2021/09/29 13:09:18;;;;;;;15.43;7.97;;;;;;;;;;4930020;29;20036;-55
2021/09/29 13:11:44;;;;;;;14.40;7.63;;;;;;;;;;4930185;29;20074;-58
2021/09/29 13:14:10;;;;;;;13.07;7.00;;;;;;;;;;4930051;29;20415;-58
2021/09/29 13:16:36;;;;;;;12.60;6.45;;;;;;;;;;4930073;29;20035;-54
2021/09/29 13:19:09;;;;;;;14.13;7.45;;;;;;;;;;4929980;29;20032;-56
2021/09/29 13:21:41;;;;;;;16.05;9.63;;;;;;;;;;4945102;28;20036;-58
2021/09/29 13:24:18;;;;;;;14.80;8.23;;;;;;;;;;4930162;29;20074;-56
2021/09/29 13:36:33;;;;;;;12.30;6.70;;;;;;;;;;4930761;29;20090;-53
2021/09/29 13:37:53;;;;;;;14.30;6.22;;;;;;;;;;4950978;28;20031;-56
2021/09/29 13:40:19;;;;;;;12.60;6.57;;;;;;;;;;4930203;29;20067;-55
2021/09/29 13:42:45;;;;;;;11.55;6.10;;;;;;;;;;4956765;28;20054;-56
2021/09/29 13:45:11;;;;;;;11.82;6.00;;;;;;;;;;4949076;28;20039;-56
2021/09/29 13:47:38;;;;;;;10.30;5.55;;;;;;;;;;4948491;28;20046;-55
2021/09/29 13:50:05;;;;;;;11.10;5.70;;;;;;;;;;4948288;28;20035;-57
2021/09/29 13:52:31;;;;;;;12.07;5.80;;;;;;;;;;4948644;28;20046;-55
2021/09/29 13:55:02;;;;;;;13.57;6.32;;;;;;;;;;4947878;28;20035;-54
2021/09/29 13:57:33;;;;;;;13.35;6.30;;;;;;;;;;4964338;28;20565;-56
2021/09/29 14:00:19;;;;;;;11.73;5.93;;;;;;;;;;4947782;28;20051;-57
2021/09/29 14:03:20;;;;;;;11.57;5.75;;;;;;;;;;4958937;28;20066;-54
2021/09/29 14:30:20;;;;;;;12.65;5.95;;;;;;;;;;5028211;28;20048;-57
2021/09/29 14:35:34;;;;;;;17.02;11.93;;;;;;;;;;5029662;28;20103;-56
2021/09/29 14:38:00;;;;;;;18.85;16.92;;;;;;;;;;5044503;28;20159;-56
2021/09/29 14:40:26;;;;;;;19.75;17.70;;;;;;;;;;5029285;28;20041;-58
2021/09/29 14:42:52;;;;;;;18.77;16.77;;;;;;;;;;4976024;28;20114;-57
2021/09/29 14:45:19;;;;;;;19.00;17.00;;;;;;;;;;4948621;28;20099;-58
2021/09/29 14:47:46;;;;;;;16.70;14.90;;;;;;;;;;4948424;28;20535;-56
2021/09/29 14:50:12;;;;;;;16.42;14.63;;;;;;;;;;4948367;28;20042;-56
2021/09/29 14:52:38;;;;;;;17.33;14.88;;;;;;;;;;4948172;28;20120;-58
2021/09/29 14:55:04;;;;;;;17.65;13.90;;;;;;;;;;4962985;28;20059;-55
2021/09/29 14:57:30;;;;;;;17.58;12.07;;;;;;;;;;4948418;28;20368;-58
2021/09/29 14:59:56;;;;;;;16.38;12.00;;;;;;;;;;4947749;28;20042;-59
2021/09/29 15:02:22;;;;;;;16.15;12.60;;;;;;;;;;4962955;28;20118;-57
2021/09/29 15:04:49;;;;;;;17.83;12.18;;;;;;;;;;5026192;28;20390;-58
2021/09/29 15:07:15;;;;;;;17.45;12.20;;;;;;;;;;5027749;28;20026;-55
2021/09/29 15:09:41;;;;;;;16.08;11.88;;;;;;;;;;5028173;28;20041;-58
2021/09/29 15:12:07;;;;;;;17.83;12.68;;;;;;;;;;5027905;28;20436;-57
2021/09/29 15:17:17;;;;;;;17.05;10.18;;;;;;;;;;5028110;28;20029;-53
2021/09/29 15:47:27;;;;;;;14.50;7.90;;;;;;;;;;4928457;29;20131;-58
2021/09/29 15:57:48;;;;;;;14.45;7.53;;;;;;;;;;4928188;29;20035;-56
2021/09/29 16:11:24;;;;;;;14.85;6.90;;;;;;;;;;5028287;28;20431;-56
2021/09/29 16:19:30;;;;;;;21.75;19.50;;;;;;;;;;5030863;28;20076;-56
2021/09/29 16:35:05;;;;;;;21.25;15.40;;;;;;;;;;5031575;28;20025;-53
2021/09/29 16:37:32;;;;;;;17.10;15.18;;;;;;;;;;5032616;28;20025;-54
2021/09/29 16:39:58;;;;;;;16.55;14.75;;;;;;;;;;5031978;28;20370;-57
2021/09/29 16:42:25;;;;;;;16.80;13.77;;;;;;;;;;4994689;28;20045;-55
2021/09/29 16:44:51;;;;;;;18.23;13.98;;;;;;;;;;4950753;28;20058;-55
2021/09/29 16:47:17;;;;;;;18.35;12.95;;;;;;;;;;4950844;28;20035;-54
2021/09/29 16:49:43;;;;;;;17.48;12.65;;;;;;;;;;4950389;28;20027;-54
2021/09/29 16:52:14;;;;;;;17.30;12.90;;;;;;;;;;4950787;28;20024;-54
2021/09/29 16:54:40;;;;;;;16.48;13.45;;;;;;;;;;4950951;28;20551;-55
2021/09/29 16:57:16;;;;;;;21.15;13.35;;;;;;;;;;4965117;28;20050;-54
2021/09/29 17:02:14;;;;;;;20.98;15.77;;;;;;;;;;5050866;28;20469;-59
2021/09/29 17:04:40;;;;;;;18.42;14.43;;;;;;;;;;5050617;28;20064;-58
2021/09/29 17:07:06;;;;;;;18.50;14.38;;;;;;;;;;5051706;28;20438;-61
2021/09/29 17:09:32;;;;;;;22.17;15.50;;;;;;;;;;5032766;28;20021;-59
2021/09/29 17:11:58;;;;;;;17.65;14.63;;;;;;;;;;5033249;28;20083;-57
2021/09/29 17:14:25;;;;;;;19.80;14.32;;;;;;;;;;5033045;28;20032;-60
2021/09/29 17:16:51;;;;;;;18.45;14.40;;;;;;;;;;5051382;28;20029;-59
2021/09/29 17:19:17;;;;;;;17.80;13.52;;;;;;;;;;5050609;28;20037;-58
2021/09/29 17:21:43;;;;;;;17.42;13.98;;;;;;;;;;5050092;28;20438;-61
2021/09/29 17:24:09;;;;;;;18.85;14.75;;;;;;;;;;5050529;28;20060;-60
2021/09/29 17:26:35;;;;;;;22.48;16.35;;;;;;;;;;5030258;28;20021;-59
2021/09/29 17:29:02;;;;;;;19.17;13.73;;;;;;;;;;5049644;28;20467;-57
2021/09/29 17:34:15;;;;;;;;;;;;;;;;;;;;;
2021/09/29 17:36:51;;;;;;;21.70;13.77;;;;;;;;;;5049522;28;20540;-60
2021/09/29 17:52:44;;;;;;;16.95;13.40;;;;;;;;;;5049704;28;20174;-58
2021/09/29 17:55:11;;;;;;;22.10;14.25;;;;;;;;;;5049158;28;20546;-61
2021/09/29 17:57:37;;;;;;;18.60;14.02;;;;;;;;;;5049115;28;20040;-61
2021/09/29 18:00:08;;;;;;;18.73;13.07;;;;;;;;;;5048640;28;20037;-61
2021/09/29 18:02:55;;;;;;;16.17;12.32;;;;;;;;;;5048762;28;20059;-61
2021/09/29 18:07:53;;;;;;;15.52;12.20;;;;;;;;;;5048132;28;20037;-59
2021/09/29 18:10:19;;;;;;;18.30;12.93;;;;;;;;;;5048314;28;20074;-60
2021/09/29 18:12:45;;;;;;;19.00;12.90;;;;;;;;;;5048750;28;20492;-61
2021/09/29 18:15:12;;;;;;;16.80;12.20;;;;;;;;;;5047896;28;20018;-61
2021/09/29 18:17:40;;;;;;;16.63;12.57;;;;;;;;;;5048436;28;20032;-60
2021/09/29 18:20:06;;;;;;;16.60;12.57;;;;;;;;;;5029943;28;20025;-60
2021/09/29 18:22:34;;;;;;;19.10;13.07;;;;;;;;;;5030318;28;20029;-61
2021/09/29 18:25:00;;;;;;;16.58;11.77;;;;;;;;;;5048324;28;20086;-61
2021/09/29 18:27:26;;;;;;;16.73;12.07;;;;;;;;;;5030429;28;20029;-61
2021/09/29 18:29:54;;;;;;;19.10;12.40;;;;;;;;;;5029905;28;20025;-61
2021/09/29 18:32:20;;;;;;;17.02;11.90;;;;;;;;;;5030381;28;20396;-61
2021/09/29 18:34:46;;;;;;;17.23;12.35;;;;;;;;;;5048082;28;20052;-60
2021/09/29 18:37:12;;;;;;;16.80;12.23;;;;;;;;;;5030281;28;20028;-61
2021/09/29 18:39:40;;;;;;;16.05;11.68;;;;;;;;;;5030049;28;20025;-61
2021/09/29 18:42:07;;;;;;;16.80;11.90;;;;;;;;;;5050453;28;20025;-61